PDT,Max TemperatureF,Mean TemperatureF,Min TemperatureF,Max Dew PointF,MeanDew PointF,Min DewpointF,Max Humidity, Mean Humidity, Min Humidity, Max Sea Level PressureIn, Mean Sea Level PressureIn, Min Sea Level PressureIn, Max VisibilityMiles, Mean VisibilityMiles, Min VisibilityMiles, Max Wind SpeedMPH, Mean Wind SpeedMPH, Max Gust SpeedMPH,PrecipitationIn, CloudCover, Events, WindDirDegrees
2011-9-1,79,68,56,59,55,52,86,66,46,29.89,29.84,29.80,10,10,10,15,4,17,0.00,2,,74
2011-9-2,82,71,59,60,57,54,84,65,45,29.90,29.87,29.84,10,10,7,16,4,18,0.00,0,,335
2011-9-3,74,67,60,59,57,57,90,74,57,29.93,29.90,29.87,10,8,5,15,6,18,0.00,4,,346
2011-9-4,71,66,60,58,56,54,84,73,61,29.96,29.92,29.89,10,9,6,16,6,18,0.00,5,,350
2011-9-5,71,65,59,56,54,53,84,71,57,29.98,29.95,29.91,10,10,10,15,5,18,0.00,3,,342
2011-9-6,82,70,58,58,55,53,87,63,39,30.02,29.98,29.93,10,9,6,13,3,15,0.00,3,,327
2011-9-7,89,74,58,60,53,41,84,53,21,30.04,30.00,29.96,10,10,9,14,5,17,0.00,0,,325
2011-9-8,75,67,59,57,55,54,87,70,53,30.10,30.05,29.99,10,10,9,15,6,18,0.00,3,,332
2011-9-9,77,68,59,61,57,55,87,71,54,29.98,29.86,29.73,10,9,7,21,5,29,T,3,,333
2011-9-10,79,71,63,61,59,57,84,69,54,29.88,29.80,29.71,10,10,10,17,6,21,0.00,0,,344
2011-9-11,77,70,62,59,58,57,84,69,54,30.05,29.96,29.88,10,10,8,18,6,22,0.00,3,,349
2011-9-12,74,69,63,59,58,56,78,68,57,30.10,30.07,30.03,10,10,10,17,7,21,0.00,4,,357
2011-9-13,76,69,61,60,58,55,84,69,54,30.10,30.05,29.98,10,10,9,12,4,15,0.00,2,,333
2011-9-14,70,65,59,59,57,53,84,74,63,29.99,29.96,29.90,10,10,10,17,7,21,0.00,4,,352
2011-9-15,74,66,58,55,53,50,86,68,49,29.94,29.91,29.87,10,10,8,24,6,28,0.00,2,,77
2011-9-16,75,66,56,56,51,48,80,62,44,30.01,29.95,29.90,10,10,10,23,5,26,0.00,0,,292
2011-9-17,77,66,55,57,52,48,77,59,41,30.07,30.03,30.00,10,10,10,16,4,18,0.00,0,,348
2011-9-18,87,72,56,57,52,47,78,54,29,30.10,30.04,29.98,10,10,10,13,4,15,0.00,0,,342
2011-9-19,91,76,61,60,55,49,78,51,24,30.03,29.97,29.89,10,10,10,13,3,16,0.00,0,,340
2011-9-20,92,77,62,62,56,48,68,46,23,29.96,29.91,29.85,10,10,10,13,3,17,0.00,0,,344
2011-9-21,88,75,61,60,57,53,78,55,31,29.95,29.90,29.86,10,10,10,14,4,17,0.00,0,,333
2011-9-22,84,73,62,60,57,48,84,57,29,29.99,29.95,29.91,10,9,5,12,4,14,0.00,3,,329
2011-9-23,88,76,63,62,58,54,78,56,34,30.00,29.95,29.88,10,10,10,13,4,15,0.00,0,,345
2011-9-24,73,68,62,61,57,52,84,71,57,30.01,29.95,29.89,10,10,10,21,9,25,0.00,3,,342
2011-9-25,72,66,60,60,55,53,84,69,53,30.06,30.03,30.00,10,10,10,13,4,15,0.00,6,,312
2011-9-26,80,67,54,57,51,43,86,63,39,30.10,30.05,29.99,10,10,10,16,4,18,0.00,0,,332
2011-9-27,85,72,58,60,54,48,73,55,36,30.07,30.01,29.95,10,10,10,14,4,16,0.00,0,,355
2011-9-28,93,77,61,59,54,45,73,47,20,30.00,29.95,29.89,10,10,10,13,2,15,0.00,0,,344
2011-9-29,77,71,65,61,58,53,84,69,54,29.95,29.92,29.90,10,10,9,16,6,20,0.00,0,,342
2011-9-30,78,70,61,61,56,53,87,67,47,29.99,29.95,29.89,10,10,10,15,4,23,0.00,3,,21